Hauptseite
METAR-TAF:

METAR-TAF

Flughäfen :

Rostock, Deutschland

Flughafen Rostock-Laage

Breite: 53-55N, Länge: 012-17E, Höhe: 40 m

Beobachtung

Neuester Wetterbericht von vor 58 Minuten, um 23:20 UTC
Wind 8 kt aus Ost
Temperatur 13°C
Luftfeuchtigkeit 82%
Luftdruck 1009 hPa
Sichtweite 10 km oder mehr
Durchbrochene Bewölkung in der Höhe von 13000 ft

METAR: ETNL 272320Z 09008KT 9999 BKN130 13/10 Q1009 BLU

Zeit: 02:18 (00:18 UTC)

Prognose

Neuester Wetterbericht von vor 1 Stunde und 53 Minuten, um 22:25 UTC
Gültige Prognose vom 27 um 23 UTC bis 28 um 11 UTC
Wind 10 kt aus Ost/Nordost
Sichtweite 10 km oder mehr
Leicht bewölkt in der Höhe von 4500 ft
Durchbrochene Bewölkung in der Höhe von 14000 ft

TAF: ETNL 272225Z 2723/2811 07010KT 9999 NSW FEW045 BKN140 BY ETGL

Wetterbeobachtungen und Prognosen von mehr als 4000 Flughäfen (METAR und TAF Bericht).

Die verfügbaren Stationen werden durch gelbe und rote Markierungen auf der Karte dargestellt.

Führen Sie die Maus auf sie, um den Namen der Station zu sehen.

Darauf klicken, um die Beobachtung von Wetterbeobachtungen und Prognosen zu sehen.

Um die Karte zu ändern : klicken Sie auf den grünen Tasten mit einem schwarzen Kreuz Zum Vergrößern, auf den grünen Button mit einem Gedankenstrich zu verkleinern, oder auf die grünen Pfeile für benachbarte Karten.


METAR-TAF: